Time;durP1;ratioP1;P1;durP2;ratioP2;P2;SDS_P1;SDS_P2;PMS_P1;PMS_P2;Temp;Humidity;BMP_temperature;BMP_pressure;BME280_temperature;BME280_humidity;BME280_pressure;Samples;Min_cycle;Max_cycle;Signal;HPM_P1;HPM_P2
2024/02/15 00:02:24;;;;;;;;;;;;;;;;;;5062375;28;19920;-87
2024/02/15 00:04:52;;;;;;;;;;;;;;;;;;5062160;28;19982;-86
2024/02/15 00:07:22;;;;;;;;;;;9.10;99.90;;;;;;5062194;28;19965;-86
2024/02/15 00:09:49;;;;;;;;;;;9.00;99.90;;;;;;5063775;28;19975;-85
2024/02/15 00:12:16;;;;;;;;;;;8.90;99.90;;;;;;5063484;28;19939;-86
2024/02/15 00:14:43;;;;;;;;;;;8.80;99.90;;;;;;5063575;28;19985;-86
2024/02/15 00:17:11;;;;;;;;;;;8.90;99.90;;;;;;5075105;28;20001;-86
2024/02/15 00:19:39;;;;;;;;;;;8.90;99.90;;;;;;5063581;28;19970;-87
2024/02/15 00:22:06;;;;;;;;;;;8.90;99.90;;;;;;5048670;28;19928;-87
2024/02/15 00:24:34;;;;;;;;;;;8.90;99.90;;;;;;5064370;28;20380;-87
2024/02/15 00:27:02;;;;;;;;;;;;;;;;;;5064297;28;20050;-87
2024/02/15 00:29:29;;;;;;;;;;;8.80;99.90;;;;;;5064810;28;19948;-87
2024/02/15 00:31:56;;;;;;;;;;;9.00;99.90;;;;;;5060892;28;19946;-86
2024/02/15 00:34:22;;;;;;;;;;;9.40;99.90;;;;;;5064091;28;19940;-86
2024/02/15 00:36:49;;;;;;;;;;;8.90;99.90;;;;;;5064557;28;19984;-87
2024/02/15 00:39:18;;;;;;;;;;;;;;;;;;5071374;28;20001;-85
2024/02/15 00:41:45;;;;;;;;;;;;;;;;;;5073421;28;19938;-86
2024/02/15 00:44:12;;;;;;;;;;;;;;;;;;5070820;28;19945;-87
2024/02/15 00:46:41;;;;;;;;;;;;;;;;;;5066407;28;19958;-86
2024/02/15 00:49:08;;;;;;;;;;;;;;;;;;5064689;28;19927;-86
2024/02/15 00:51:35;;;;;;;;;;;;;;;;;;5069696;28;20006;-86
2024/02/15 00:54:02;;;;;;;;;;;;;;;;;;5080020;28;19960;-82
2024/02/15 00:56:29;;;;;;;;;;;;;;;;;;5080203;28;19952;-85
2024/02/15 00:58:56;;;;;;;;;;;;;;;;;;5071842;28;19943;-87
2024/02/15 01:01:23;;;;;;;;;;;;;;;;;;5062338;28;19939;-86
2024/02/15 01:03:50;;;;;;;;;;;;;;;;;;5067346;28;19948;-85
2024/02/15 01:06:18;;;;;;;;;;;;;;;;;;5058692;28;19966;-85
2024/02/15 01:08:45;;;;;;;;;;;;;;;;;;5060778;28;19949;-87
2024/02/15 01:11:13;;;;;;;;;;;;;;;;;;5061669;28;19959;-86
2024/02/15 01:13:40;;;;;;;;;;;;;;;;;;5061091;28;19953;-87
2024/02/15 01:16:07;;;;;;;;;;;;;;;;;;5061183;28;19945;-87
2024/02/15 01:18:34;;;;;;;;;;;;;;;;;;5060965;28;20044;-87
2024/02/15 01:21:02;;;;;;;;;;;9.50;99.90;;;;;;5060942;28;19941;-86
2024/02/15 01:23:29;;;;;;;;;;;9.00;99.90;;;;;;5060342;28;20379;-87
2024/02/15 01:25:57;;;;;;;;;;;9.00;99.90;;;;;;5066084;28;19945;-85
2024/02/15 01:28:24;;;;;;;;;;;9.00;99.90;;;;;;5069925;28;19960;-85
2024/02/15 01:30:50;;;;;;;;;;;8.90;99.90;;;;;;5065128;28;20019;-86
2024/02/15 01:33:18;;;;;;;;;;;9.00;99.90;;;;;;5076907;28;19926;-83
2024/02/15 01:35:46;;;;;;;;;;;;;;;;;;5076799;28;20004;-85
2024/02/15 01:38:13;;;;;;;;;;;;;;;;;;5065657;28;20051;-87
2024/02/15 01:40:40;;;;;;;;;;;;;;;;;;5061874;28;20038;-86
2024/02/15 01:43:07;;;;;;;;;;;;;;;;;;5062132;28;19949;-87
2024/02/15 01:45:34;;;;;;;;;;;;;;;;;;5062039;28;19940;-86
2024/02/15 01:48:01;;;;;;;;;;;;;;;;;;5061601;28;19962;-86
2024/02/15 01:50:29;;;;;;;;;;;;;;;;;;5063442;28;19946;-86
2024/02/15 01:52:56;;;;;;;;;;;;;;;;;;5060145;28;20026;-86
2024/02/15 01:55:23;;;;;;;;;;;;;;;;;;5060246;28;19948;-86
2024/02/15 01:57:50;;;;;;;;;;;;;;;;;;5060914;28;20041;-86
2024/02/15 02:00:19;;;;;;;;;;;9.20;99.90;;;;;;5060744;28;19947;-86
2024/02/15 02:02:46;;;;;;;;;;;9.20;99.90;;;;;;5061172;28;19961;-86
2024/02/15 02:05:16;;;;;;;;;;;9.10;99.90;;;;;;5067853;28;19926;-85
2024/02/15 02:07:43;;;;;;;;;;;;;;;;;;5078376;28;20013;-85
2024/02/15 02:10:11;;;;;;;;;;;;;;;;;;5074200;28;19987;-86
2024/02/15 02:12:39;;;;;;;;;;;;;;;;;;5057743;28;19955;-86
2024/02/15 02:15:06;;;;;;;;;;;9.30;99.90;;;;;;5059034;28;19939;-85
2024/02/15 02:17:35;;;;;;;;;;;9.10;99.90;;;;;;5057193;28;19961;-86
2024/02/15 02:20:07;;;;;;;;;;;9.00;99.90;;;;;;5058458;28;19921;-86
2024/02/15 02:22:34;;;;;;;;;;;9.10;99.90;;;;;;5064581;28;20029;-83
2024/02/15 02:25:04;;;;;;;;;;;9.00;99.90;;;;;;5074914;28;19947;-84
2024/02/15 02:27:33;;;;;;;;;;;9.20;99.90;;;;;;5076391;28;19942;-84
2024/02/15 02:30:00;;;;;;;;;;;9.00;99.90;;;;;;5074752;28;19941;-85
2024/02/15 02:32:27;;;;;;;;;;;9.00;99.90;;;;;;5076207;28;19957;-86
2024/02/15 02:34:57;;;;;;;;;;;9.00;99.90;;;;;;5072150;28;19961;-86
2024/02/15 02:37:23;;;;;;;;;;;9.00;99.90;;;;;;5072763;28;20437;-86
2024/02/15 02:39:50;;;;;;;;;;;9.00;99.90;;;;;;5064495;28;20110;-86
2024/02/15 02:42:17;;;;;;;;;;;;;;;;;;5060799;28;20003;-86
2024/02/15 02:44:45;;;;;;;;;;;9.00;99.90;;;;;;5059990;28;20307;-86
2024/02/15 02:47:12;;;;;;;;;;;9.00;99.90;;;;;;5059516;28;19962;-86
2024/02/15 02:49:39;;;;;;;;;;;9.00;99.90;;;;;;5059700;28;20445;-86
2024/02/15 02:52:06;;;;;;;;;;;9.00;99.90;;;;;;5073736;28;20007;-86
2024/02/15 02:54:33;;;;;;;;;;;9.00;99.90;;;;;;5060248;28;20448;-86
2024/02/15 02:57:00;;;;;;;;;;;9.00;99.90;;;;;;5060306;28;19978;-86
2024/02/15 02:59:28;;;;;;;;;;;;;;;;;;5059434;28;19954;-86
2024/02/15 03:01:56;;;;;;;;;;;;;;;;;;5063459;28;19940;-86
2024/02/15 03:04:23;;;;;;;;;;;;;;;;;;5075953;28;19945;-86
2024/02/15 03:06:51;;;;;;;;;;;;;;;;;;5076758;28;19985;-86
2024/02/15 03:09:20;;;;;;;;;;;;;;;;;;5072279;28;19955;-85
2024/02/15 03:11:51;;;;;;;;;;;9.20;99.90;;;;;;5072682;28;19967;-85
2024/02/15 03:17:21;;;;;;;;;;;9.20;99.90;;;;;;5058757;28;19955;-86
2024/02/15 03:19:48;;;;;;;;;;;9.10;99.90;;;;;;5059421;28;19949;-85
2024/02/15 03:22:15;;;;;;;;;;;9.10;99.90;;;;;;5058891;28;19939;-85
2024/02/15 03:24:42;;;;;;;;;;;9.10;99.90;;;;;;5059209;28;19989;-86
2024/02/15 03:27:10;;;;;;;;;;;9.10;99.90;;;;;;5059637;28;20003;-87
2024/02/15 03:29:37;;;;;;;;;;;9.10;99.90;;;;;;5067662;28;19921;-86
2024/02/15 03:32:06;;;;;;;;;;;9.20;99.90;;;;;;5080453;28;19982;-85
2024/02/15 03:34:33;;;;;;;;;;;9.20;99.90;;;;;;5076741;28;20012;-87
2024/02/15 03:36:59;;;;;;;;;;;9.10;99.90;;;;;;5065883;28;19958;-86
2024/02/15 03:39:26;;;;;;;;;;;9.10;99.90;;;;;;5079453;28;19932;-85
2024/02/15 03:41:53;;;;;;;;;;;9.20;99.90;;;;;;5078030;28;20008;-85
2024/02/15 03:44:21;;;;;;;;;;;9.20;99.90;;;;;;5075972;28;19944;-85
2024/02/15 06:23:30;;;;;;;;;;;;;;;;;;5040019;28;19921;-88
2024/02/15 06:25:57;;;;;;;;;;;;;;;;;;5047709;28;19925;-87
2024/02/15 06:42:04;;;;;;;;;;;;;;;;;;5075128;28;20406;-83
2024/02/15 06:44:31;;;;;;;;;;;;;;;;;;5076105;28;19930;-84
2024/02/15 06:46:58;;;;;;;;;;;;;;;;;;5075042;28;19983;-83
2024/02/15 06:49:25;;;;;;;;;;;;;;;;;;5072051;28;19920;-82
2024/02/15 06:51:52;;;;;;;;;;;;;;;;;;5064963;28;19967;-82
2024/02/15 06:54:19;;;;;;;;;;;;;;;;;;5060053;28;19939;-82
2024/02/15 06:56:47;;;;;;;;;;;;;;;;;;5059055;28;19965;-84
2024/02/15 06:59:14;;;;;;;;;;;;;;;;;;5059374;28;19983;-82
2024/02/15 07:01:41;;;;;;;;;;;;;;;;;;5058580;28;19942;-83
2024/02/15 07:04:10;;;;;;;;;;;;;;;;;;5061599;28;20492;-85
2024/02/15 07:06:37;;;;;;;;;;;;;;;;;;5064075;28;20476;-83
2024/02/15 07:09:04;;;;;;;;;;;;;;;;;;5067377;28;19984;-83
2024/02/15 07:11:31;;;;;;;;;;;;;;;;;;5064281;28;19920;-83
2024/02/15 07:13:58;;;;;;;;;;;;;;;;;;5062829;28;19939;-83
2024/02/15 07:16:25;;;;;;;;;;;;;;;;;;5063721;28;19956;-83
2024/02/15 07:18:52;;;;;;;;;;;;;;;;;;5064107;28;19939;-84
2024/02/15 07:21:23;;;;;;;;;;;;;;;;;;5062734;28;19948;-84
2024/02/15 07:23:50;;;;;;;;;;;;;;;;;;5062826;28;19964;-84
2024/02/15 07:26:20;;;;;;;;;;;;;;;;;;5068935;28;20357;-81
2024/02/15 07:28:48;;;;;;;;;;;;;;;;;;5078771;28;19939;-81
2024/02/15 07:31:15;;;;;;;;;;;;;;;;;;5078144;28;19950;-83
2024/02/15 07:33:43;;;;;;;;;;;;;;;;;;5067000;28;19955;-83
2024/02/15 07:36:09;;;;;;;;;;;;;;;;;;5063026;28;19959;-83
2024/02/15 07:38:36;;;;;;;;;;;;;;;;;;5063438;28;19921;-84
2024/02/15 07:41:03;;;;;;;;;;;;;;;;;;5063419;28;19947;-83
2024/02/15 07:43:31;;;;;;;;;;;;;;;;;;5064760;28;19951;-83
2024/02/15 07:45:58;;;;;;;;;;;;;;;;;;5073309;28;19956;-84
2024/02/15 07:48:25;;;;;;;;;;;;;;;;;;5068240;28;19999;-84
2024/02/15 07:50:51;;;;;;;;;;;;;;;;;;5063834;28;19966;-84
2024/02/15 07:53:19;;;;;;;;;;;;;;;;;;5065977;28;19960;-83
2024/02/15 07:55:46;;;;;;;;;;;;;;;;;;5065862;28;20423;-83
2024/02/15 07:58:13;;;;;;;;;;;;;;;;;;5062449;28;19967;-81
2024/02/15 08:00:40;;;;;;;;;;;;;;;;;;5063757;28;19945;-84
2024/02/15 08:03:08;;;;;;;;;;;;;;;;;;5061904;28;20355;-83
2024/02/15 08:05:35;;;;;;;;;;;;;;;;;;5061639;28;19966;-83
2024/02/15 08:08:03;;;;;;;;;;;;;;;;;;5061455;28;20370;-84
2024/02/15 08:10:30;;;;;;;;;;;;;;;;;;5061570;28;19928;-82
2024/02/15 08:12:58;;;;;;;;;;;;;;;;;;5060758;28;20051;-83
2024/02/15 08:15:27;;;;;;;;;;;;;;;;;;5061379;28;20010;-84
2024/02/15 08:17:55;;;;;;;;;;;;;;;;;;5061438;28;20488;-83
2024/02/15 08:20:22;;;;;;;;;;;;;;;;;;5061852;28;19963;-84
2024/02/15 08:22:49;;;;;;;;;;;;;;;;;;5062268;28;19965;-84
2024/02/15 08:25:17;;;;;;;;;;;;;;;;;;5061157;28;20357;-83
2024/02/15 08:27:44;;;;;;;;;;;;;;;;;;5061424;28;19928;-83
2024/02/15 08:30:11;;;;;;;;;;;;;;;;;;5061916;28;19939;-83
2024/02/15 08:32:39;;;;;;;;;;;;;;;;;;5062135;28;19999;-83
2024/02/15 08:35:06;;;;;;;;;;;;;;;;;;5062061;28;19959;-83
2024/02/15 08:37:34;;;;;;;;;;;;;;;;;;5066651;28;20370;-83
2024/02/15 08:40:02;;;;;;;;;;;;;;;;;;5072981;28;19943;-81
2024/02/15 08:42:29;;;;;;;;;;;;;;;;;;5080274;28;20091;-81
2024/02/15 08:44:56;;;;;;;;;;;;;;;;;;5064587;28;20050;-83
2024/02/15 08:47:22;;;;;;;;;;;;;;;;;;5061824;28;19970;-84
2024/02/15 08:49:49;;;;;;;;;;;;;;;;;;5060898;28;20015;-83
2024/02/15 08:52:18;;;;;;;;;;;;;;;;;;5060854;28;20004;-83
2024/02/15 08:54:45;;;;;;;;;;;;;;;;;;5065419;28;19963;-82
2024/02/15 08:57:13;;;;;;;;;;;;;;;;;;5058850;28;20019;-83
2024/02/15 08:59:42;;;;;;;;;;;;;;;;;;5057447;28;20358;-81
2024/02/15 09:02:09;;;;;;;;;;;;;;;;;;5058145;28;19975;-82
2024/02/15 09:04:36;;;;;;;;;;;;;;;;;;5065223;28;20009;-83
2024/02/15 09:07:04;;;;;;;;;;;;;;;;;;5060902;28;19967;-83
2024/02/15 09:09:31;;;;;;;;;;;;;;;;;;5061272;28;19939;-83
2024/02/15 09:11:58;;;;;;;;;;;;;;;;;;5060465;28;19963;-84
2024/02/15 09:14:25;;;;;;;;;;;;;;;;;;5060554;28;19962;-83
2024/02/15 09:16:52;;;;;;;;;;;;;;;;;;5059880;28;20314;-83
2024/02/15 09:19:19;;;;;;;;;;;;;;;;;;5059493;28;20007;-83
2024/02/15 09:21:46;;;;;;;;;;;;;;;;;;5059994;28;19980;-84
2024/02/15 09:24:16;;;;;;;;;;;;;;;;;;5064528;28;19952;-81
2024/02/15 09:26:42;;;;;;;;;;;;;;;;;;5070491;28;20047;-82
2024/02/15 09:29:09;;;;;;;;;;;;;;;;;;5074832;28;19984;-81
2024/02/15 09:31:37;;;;;;;;;;;;;;;;;;5068684;28;20328;-82
2024/02/15 09:34:06;;;;;;;;;;;;;;;;;;5062889;28;19951;-82
2024/02/15 09:36:33;;;;;;;;;;;;;;;;;;5059791;28;19962;-82
2024/02/15 09:39:00;;;;;;;;;;;;;;;;;;5063383;28;19921;-82
2024/02/15 09:41:27;;;;;;;;;;;;;;;;;;5070768;28;19968;-81
2024/02/15 09:43:54;;;;;;;;;;;;;;;;;;5061228;28;20013;-81
2024/02/15 09:46:21;;;;;;;;;;;;;;;;;;5059855;28;19959;-82
2024/02/15 09:48:49;;;;;;;;;;;;;;;;;;5060198;28;19921;-81
2024/02/15 09:51:16;;;;;;;;;;;;;;;;;;5064913;28;19927;-83
2024/02/15 09:53:43;;;;;;;;;;;;;;;;;;5071901;28;19955;-83
2024/02/15 09:56:10;;;;;;;;;;;;;;;;;;5077778;28;19925;-83
2024/02/15 09:58:37;;;;;;;;;;;;;;;;;;5078150;28;19961;-84
2024/02/15 10:01:06;;;;;;;;;;;;;;;;;;5065322;28;20037;-82
2024/02/15 10:03:32;;;;;;;;;;;;;;;;;;5065630;28;19959;-84
2024/02/15 10:05:59;;;;;;;;;;;;;;;;;;5063555;28;20056;-82
2024/02/15 10:08:26;;;;;;;;;;;;;;;;;;5067304;28;19965;-81
2024/02/15 10:10:53;;;;;;;;;;;;;;;;;;5073241;28;20035;-82
2024/02/15 10:13:20;;;;;;;;;;;;;;;;;;5070270;28;19921;-82
2024/02/15 10:15:47;;;;;;;;;;;;;;;;;;5062747;28;19961;-83
2024/02/15 10:18:15;;;;;;;;;;;;;;;;;;5066711;28;19927;-84
2024/02/15 10:20:44;;;;;;;;;;;;;;;;;;5062392;28;20062;-82
2024/02/15 10:23:11;;;;;;;;;;;;;;;;;;5060462;28;19920;-83
2024/02/15 10:25:38;;;;;;;;;;;;;;;;;;5069259;28;19955;-83
2024/02/15 10:28:06;;;;;;;;;;;;;;;;;;5061649;28;20004;-82
2024/02/15 10:30:33;;;;;;;;;;;;;;;;;;5062833;28;20033;-80
2024/02/15 10:33:00;;;;;;;;;;;;;;;;;;5059237;28;19969;-83
2024/02/15 10:35:27;;;;;;;;;;;;;;;;;;5057341;28;19920;-83
2024/02/15 10:37:54;;;;;;;;;;;;;;;;;;5059266;28;19964;-82
2024/02/15 10:40:21;;;;;;;;;;;;;;;;;;5062710;28;19977;-83
2024/02/15 10:42:48;;;;;;;;;;;;;;;;;;5062724;28;20000;-83
2024/02/15 10:45:17;;;;;;;;;;;;;;;;;;5061951;28;19921;-82
2024/02/15 10:47:44;;;;;;;;;;;;;;;;;;5065590;28;20015;-82
2024/02/15 10:50:11;;;;;;;;;;;;;;;;;;5078581;28;19996;-82
2024/02/15 10:52:39;;;;;;;;;;;;;;;;;;5076256;28;19921;-82
2024/02/15 10:55:08;;;;;;;;;;;;;;;;;;5067161;28;19943;-80
2024/02/15 10:57:35;;;;;;;;;;;;;;;;;;5078260;28;19931;-82
2024/02/15 11:00:10;;;;;;;;;;;;;;;;;;5075503;28;19971;-83
2024/02/15 11:02:37;;;;;;;;;;;;;;;;;;5070989;28;19921;-83
2024/02/15 11:05:05;;;;;;;;;;;;;;;;;;5075174;28;20428;-82
2024/02/15 11:07:32;;;;;;;;;;;;;;;;;;5067054;28;19927;-82
2024/02/15 11:09:59;;;;;;;;;;;;;;;;;;5066958;28;19976;-83
2024/02/15 11:12:26;;;;;;;;;;;;;;;;;;5063923;28;20311;-83
2024/02/15 11:14:54;;;;;;;;;;;;;;;;;;5064447;28;19958;-83
2024/02/15 11:17:20;;;;;;;;;;;;;;;;;;5067024;28;20059;-83
2024/02/15 11:19:50;;;;;;;;;;;;;;;;;;5062968;28;20007;-83
2024/02/15 11:22:16;;;;;;;;;;;;;;;;;;5063292;28;20409;-84
2024/02/15 11:24:43;;;;;;;;;;;;;;;;;;5062453;28;20046;-83
2024/02/15 11:27:13;;;;;;;;;;;;;;;;;;5062538;28;20051;-83
2024/02/15 11:29:40;;;;;;;;;;;;;;;;;;5062547;28;20033;-83
2024/02/15 11:32:08;;;;;;;;;;;;;;;;;;5073822;28;20043;-82
2024/02/15 11:34:34;;;;;;;;;;;;;;;;;;5077523;28;19928;-82
2024/02/15 11:37:01;;;;;;;;;;;;;;;;;;5065874;28;19939;-83
2024/02/15 11:39:28;;;;;;;;;;;;;;;;;;5062362;28;19967;-83
2024/02/15 11:41:56;;;;;;;;;;;;;;;;;;5066598;28;19975;-84
2024/02/15 11:44:23;;;;;;;;;;;;;;;;;;5063700;28;20371;-84
2024/02/15 11:46:57;;;;;;;;;;;12.90;1.00;;;;;;5060249;28;19943;-83
2024/02/15 11:49:24;;;;;;;;;;;12.90;1.00;;;;;;5059859;28;20372;-82
2024/02/15 11:51:51;;;;;;;;;;;12.80;1.00;;;;;;5061268;28;20423;-84
2024/02/15 11:54:21;;;;;;;;;;;12.70;1.00;;;;;;5061969;28;19943;-85
2024/02/15 11:56:54;;;;;;;;;;;12.60;9.60;;;;;;5061212;28;19966;-84
2024/02/15 11:59:31;;;;;;;;;;;12.60;22.50;;;;;;5069390;28;20003;-82
2024/02/15 12:18:47;;;;;;;;;;;12.60;99.90;;;;;;5061860;28;19928;-84
2024/02/15 12:21:17;;;;;;;;;;;12.50;99.90;;;;;;5061185;28;19941;-84
2024/02/15 12:23:45;;;;;;;;;;;12.50;99.90;;;;;;5061244;28;20414;-82
2024/02/15 12:26:14;;;;;;;;;;;12.50;99.90;;;;;;5061156;28;20048;-83
2024/02/15 12:28:42;;;;;;;;;;;12.50;99.90;;;;;;5060741;28;19963;-84
2024/02/15 12:31:09;;;;;;;;;;;12.50;99.90;;;;;;5060925;28;19945;-83
2024/02/15 12:33:37;;;;;;;;;;;12.40;99.90;;;;;;5060901;28;19975;-85
2024/02/15 12:36:29;;;;;;;;;;;12.60;99.90;;;;;;5079359;22;19927;-89
2024/02/15 12:39:10;;;;;;;;;;;13.10;99.90;;;;;;5070471;28;19961;-89
2024/02/15 12:41:49;;;;;;;;;;;13.00;99.90;;;;;;5068323;28;20295;-89
2024/02/15 12:44:18;;;;;;;;;;;13.50;99.90;;;;;;5068643;28;20283;-89
2024/02/15 12:46:49;;;;;;;;;;;;;;;;;;5074881;28;20017;-90
2024/02/15 12:49:19;;;;;;;;;;;;;;;;;;5071093;28;19941;-90
2024/02/15 12:52:01;;;;;;;;;;;13.10;38.50;;;;;;5073420;28;19958;-89
2024/02/15 12:54:53;;;;;;;;;;;13.20;1.00;;;;;;5071273;28;19958;-89
2024/02/15 12:57:25;;;;;;;;;;;13.60;1.00;;;;;;5063754;28;19927;-89
2024/02/15 12:59:52;;;;;;;;;;;13.30;1.00;;;;;;5072075;28;19967;-90
2024/02/15 13:02:21;;;;;;;;;;;13.30;1.00;;;;;;5074614;28;19962;-88
2024/02/15 13:04:50;;;;;;;;;;;13.40;1.00;;;;;;5079243;28;19947;-87
2024/02/15 13:07:19;;;;;;;;;;;13.30;1.00;;;;;;5078933;28;19946;-89
2024/02/15 13:09:46;;;;;;;;;;;13.30;1.00;;;;;;5069245;28;20308;-88
2024/02/15 13:12:13;;;;;;;;;;;13.00;1.00;;;;;;5067021;28;19921;-89
2024/02/15 13:14:44;;;;;;;;;;;13.40;1.00;;;;;;5064650;28;19924;-88
2024/02/15 13:17:11;;;;;;;;;;;13.50;1.00;;;;;;5071879;28;19966;-89
2024/02/15 13:19:38;;;;;;;;;;;13.60;1.00;;;;;;5062798;28;19955;-88
2024/02/15 13:22:08;;;;;;;;;;;13.60;1.00;;;;;;5063524;28;19939;-89
2024/02/15 13:24:38;;;;;;;;;;;13.60;1.00;;;;;;5060337;28;19948;-89
2024/02/15 13:27:10;;;;;;;;;;;14.20;1.00;;;;;;5060030;28;19924;-89
2024/02/15 13:29:39;;;;;;;;;;;13.80;1.00;;;;;;5066394;28;19921;-89
2024/02/15 13:32:12;;;;;;;;;;;13.70;1.00;;;;;;5062953;28;19921;-89
2024/02/15 13:34:42;;;;;;;;;;;13.60;1.00;;;;;;5071678;28;19954;-89
2024/02/15 13:37:13;;;;;;;;;;;13.70;1.00;;;;;;5067198;28;19964;-89
2024/02/15 13:39:45;;;;;;;;;;;13.60;1.00;;;;;;5060045;28;19970;-89
2024/02/15 13:42:23;;;;;;;;;;;13.50;1.00;;;;;;5071252;28;19920;-89
2024/02/15 13:44:50;;;;;;;;;;;13.60;1.00;;;;;;5075961;28;19921;-88
2024/02/15 13:47:20;;;;;;;;;;;13.50;1.00;;;;;;5077825;28;19962;-88
2024/02/15 13:49:51;;;;;;;;;;;13.50;1.00;;;;;;5078472;28;19968;-88
2024/02/15 13:52:36;;;;;;;;;;;13.40;1.00;;;;;;5069273;28;19956;-89
2024/02/15 13:55:28;;;;;;;;;;;13.60;1.00;;;;;;5066130;28;19905;-89
2024/02/15 13:57:56;;;;;;;;;;;13.60;1.00;;;;;;5065003;28;19947;-89
2024/02/15 14:00:29;;;;;;;;;;;13.60;1.00;;;;;;5069157;28;19921;-89
2024/02/15 14:03:05;;;;;;;;;;;13.60;1.00;;;;;;5071077;28;19921;-89
2024/02/15 14:05:39;;;;;;;;;;;13.70;1.00;;;;;;5061986;28;19921;-88
2024/02/15 14:08:10;;;;;;;;;;;13.50;1.00;;;;;;5073266;28;19921;-87
2024/02/15 14:10:46;;;;;;;;;;;13.40;1.00;;;;;;5077272;28;19918;-89
2024/02/15 14:13:18;;;;;;;;;;;13.30;1.00;;;;;;5075163;28;19920;-89
2024/02/15 14:15:47;;;;;;;;;;;13.20;1.00;;;;;;5070769;28;19925;-88
2024/02/15 14:18:19;;;;;;;;;;;13.50;1.00;;;;;;5064425;28;19927;-89
2024/02/15 14:20:50;;;;;;;;;;;13.60;1.00;;;;;;5062917;28;19924;-89
2024/02/15 14:23:20;;;;;;;;;;;13.50;1.00;;;;;;5063377;28;19920;-89
2024/02/15 14:25:53;;;;;;;;;;;13.40;1.00;;;;;;5065137;28;19921;-89
2024/02/15 14:28:28;;;;;;;;;;;13.40;1.00;;;;;;5069889;28;19970;-90
2024/02/15 14:33:41;;;;;;;;;;;13.40;1.00;;;;;;5070172;28;19965;-88
2024/02/15 14:36:14;;;;;;;;;;;13.20;1.00;;;;;;5072824;28;19921;-89
2024/02/15 14:38:49;;;;;;;;;;;13.20;1.00;;;;;;5072482;28;19920;-88
2024/02/15 14:41:26;;;;;;;;;;;13.20;1.00;;;;;;5071622;28;19970;-89
2024/02/15 14:43:54;;;;;;;;;;;13.20;1.00;;;;;;5067841;28;19921;-89
2024/02/15 14:46:24;;;;;;;;;;;;;;;;;;5062490;28;19928;-89
2024/02/15 14:48:54;;;;;;;;;;;13.00;1.00;;;;;;5062464;28;19925;-89
2024/02/15 14:51:27;;;;;;;;;;;13.10;1.00;;;;;;5060920;28;19939;-89
2024/02/15 14:54:03;;;;;;;;;;;13.10;1.00;;;;;;5066953;28;19935;-89
2024/02/15 14:59:34;;;;;;;;;;;;;;;;;;5063877;28;19921;-89
2024/02/15 15:13:27;;;;;;;;;;;12.90;1.00;;;;;;5078636;28;19905;-87
2024/02/15 15:16:25;;;;;;;;;;;12.90;1.00;;;;;;5070595;28;19958;-89
2024/02/15 15:22:19;;;;;;;;;;;;;;;;;;5036838;28;19958;-90
2024/02/15 15:27:51;;;;;;;;;;;;;;;;;;5056828;28;19955;-87
2024/02/15 15:30:37;;;;;;;;;;;12.60;91.20;;;;;;5043492;28;19964;-88
2024/02/15 15:35:54;;;;;;;;;;;;;;;;;;5072618;28;19928;-89
2024/02/15 15:43:56;;;;;;;;;;;;;;;;;;5060614;28;19916;-90
2024/02/15 15:46:39;;;;;;;;;;;;;;;;;;5066678;28;19955;-89
2024/02/15 15:49:34;;;;;;;;;;;12.60;99.90;;;;;;5067793;28;19924;-90
2024/02/15 15:52:05;;;;;;;;;;;12.60;99.90;;;;;;5066501;28;20235;-89
2024/02/15 15:57:31;;;;;;;;;;;;;;;;;;5046482;28;19960;-89
2024/02/15 16:00:09;;;;;;;;;;;;;;;;;;5067344;28;19959;-88
2024/02/15 16:02:45;;;;;;;;;;;;;;;;;;5073244;28;20024;-88
2024/02/15 16:05:20;;;;;;;;;;;;;;;;;;5070642;28;19957;-88
2024/02/15 16:08:16;;;;;;;;;;;;;;;;;;;;;
2024/02/15 16:10:48;;;;;;;;;;;12.50;99.90;;;;;;5063554;28;19920;-89
2024/02/15 16:13:30;;;;;;;;;;;12.40;99.90;;;;;;5063513;28;19959;-89
2024/02/15 16:16:10;;;;;;;;;;;12.50;99.90;;;;;;5064980;28;20246;-89
2024/02/15 16:18:50;;;;;;;;;;;;;;;;;;5065567;28;19999;-90
2024/02/15 16:21:22;;;;;;;;;;;;;;;;;;5077687;28;19916;-89
2024/02/15 16:24:05;;;;;;;;;;;;;;;;;;5071197;28;19916;-90
2024/02/15 16:26:47;;;;;;;;;;;12.50;99.90;;;;;;5072248;28;19927;-88
2024/02/15 16:29:15;;;;;;;;;;;12.40;99.90;;;;;;5066646;28;19960;-88
2024/02/15 16:31:46;;;;;;;;;;;12.40;99.90;;;;;;5065494;28;19943;-89
2024/02/15 16:34:22;;;;;;;;;;;12.30;99.90;;;;;;5061933;28;19955;-89
2024/02/15 16:40:11;;;;;;;;;;;12.20;99.90;;;;;;5076563;28;19921;-89
2024/02/15 16:42:42;;;;;;;;;;;;;;;;;;5061517;28;19924;-89
2024/02/15 16:45:41;;;;;;;;;;;;;;;;;;;;;
2024/02/15 16:48:12;;;;;;;;;;;12.20;99.90;;;;;;5059486;28;19966;-89
2024/02/15 16:50:46;;;;;;;;;;;12.20;99.90;;;;;;5068631;28;19924;-89
2024/02/15 16:53:17;;;;;;;;;;;12.20;99.90;;;;;;5070985;28;19955;-89
2024/02/15 16:55:47;;;;;;;;;;;;;;;;;;5060571;28;20452;-89
2024/02/15 17:01:25;;;;;;;;;;;12.10;99.90;;;;;;5051319;28;19980;-90
2024/02/15 17:04:15;;;;;;;;;;;12.90;99.90;;;;;;5060027;28;20323;-90
2024/02/15 17:06:53;;;;;;;;;;;12.10;99.90;;;;;;5059696;28;19921;-90
2024/02/15 17:09:33;;;;;;;;;;;12.20;99.90;;;;;;5071524;28;19920;-89
2024/02/15 17:12:07;;;;;;;;;;;12.20;99.90;;;;;;5060184;28;20375;-89
2024/02/15 17:14:41;;;;;;;;;;;12.20;99.90;;;;;;5067081;28;19921;-89
2024/02/15 17:17:19;;;;;;;;;;;12.20;99.90;;;;;;5059874;28;19925;-89
2024/02/15 17:20:14;;;;;;;;;;;11.90;99.90;;;;;;5060396;28;19920;-89
2024/02/15 17:22:51;;;;;;;;;;;12.10;99.90;;;;;;5061473;28;20015;-89
2024/02/15 17:25:27;;;;;;;;;;;12.20;99.90;;;;;;5059649;28;19962;-89
2024/02/15 17:28:08;;;;;;;;;;;12.10;99.90;;;;;;5060797;28;19969;-89
2024/02/15 17:31:07;;;;;;;;;;;12.10;99.90;;;;;;5060656;28;19978;-89
2024/02/15 17:33:49;;;;;;;;;;;12.10;99.90;;;;;;5059763;28;20419;-89
2024/02/15 17:36:32;;;;;;;;;;;12.10;99.90;;;;;;5059124;28;19927;-89
2024/02/15 17:39:09;;;;;;;;;;;12.20;99.90;;;;;;5065924;28;19930;-89
2024/02/15 17:41:39;;;;;;;;;;;;;;;;;;5063637;28;19921;-89
2024/02/15 17:44:11;;;;;;;;;;;;;;;;;;5059109;28;19955;-89
2024/02/15 17:46:46;;;;;;;;;;;;;;;;;;5057830;28;19961;-89
2024/02/15 17:49:14;;;;;;;;;;;;;;;;;;5059468;28;19943;-89
2024/02/15 17:51:43;;;;;;;;;;;;;;;;;;5060737;28;19966;-89
2024/02/15 17:54:10;;;;;;;;;;;;;;;;;;5076110;28;19905;-89
2024/02/15 17:56:47;;;;;;;;;;;;;;;;;;5078142;28;19965;-89
2024/02/15 17:59:27;;;;;;;;;;;;;;;;;;5072061;28;19921;-89
2024/02/15 18:01:57;;;;;;;;;;;;;;;;;;5060828;28;19927;-89
2024/02/15 18:04:28;;;;;;;;;;;;;;;;;;5065248;28;19928;-89
2024/02/15 18:07:00;;;;;;;;;;;;;;;;;;5076348;28;19920;-89
2024/02/15 18:09:33;;;;;;;;;;;;;;;;;;5076151;28;19920;-90
2024/02/15 18:12:14;;;;;;;;;;;;;;;;;;5059619;28;19920;-89
2024/02/15 18:14:52;;;;;;;;;;;;;;;;;;5060333;28;20001;-89
2024/02/15 18:17:29;;;;;;;;;;;;;;;;;;5063023;28;20368;-89
2024/02/15 18:20:22;;;;;;;;;;;;;;;;;;5069275;28;19979;-89
2024/02/15 18:25:36;;;;;;;;;;;;;;;;;;5060264;28;19959;-89
2024/02/15 18:28:03;;;;;;;;;;;;;;;;;;5066174;28;19975;-86
2024/02/15 18:30:34;;;;;;;;;;;;;;;;;;5076195;28;19965;-87
2024/02/15 18:33:03;;;;;;;;;;;;;;;;;;5078808;28;19973;-86
2024/02/15 18:35:30;;;;;;;;;;;;;;;;;;5088954;22;19962;-86
2024/02/15 18:37:58;;;;;;;;;;;;;;;;;;5061192;28;20012;-86
2024/02/15 18:40:26;;;;;;;;;;;;;;;;;;5062902;28;20277;-86
2024/02/15 18:42:53;;;;;;;;;;;;;;;;;;5063854;28;19925;-85
2024/02/15 18:45:22;;;;;;;;;;;;;;;;;;5063507;28;20058;-85
2024/02/15 18:47:49;;;;;;;;;;;;;;;;;;5063926;28;20388;-86
2024/02/15 18:50:18;;;;;;;;;;;;;;;;;;5063824;28;19971;-86
2024/02/15 18:52:45;;;;;;;;;;;;;;;;;;5067838;28;19921;-85
2024/02/15 18:55:12;;;;;;;;;;;;;;;;;;5071369;28;20030;-85
2024/02/15 18:57:39;;;;;;;;;;;;;;;;;;5071493;28;19921;-84
2024/02/15 19:00:06;;;;;;;;;;;;;;;;;;5077538;28;19920;-83
2024/02/15 19:02:33;;;;;;;;;;;;;;;;;;5076116;28;19994;-85
2024/02/15 19:05:10;;;;;;;;;;;;;;;;;;5068097;28;19921;-84
2024/02/15 19:07:37;;;;;;;;;;;;;;;;;;5080197;28;19924;-83
2024/02/15 19:10:05;;;;;;;;;;;;;;;;;;5078809;28;19934;-85
2024/02/15 19:12:33;;;;;;;;;;;;;;;;;;5067740;28;19920;-86
2024/02/15 19:15:01;;;;;;;;;;;;;;;;;;5065295;28;19939;-85
2024/02/15 19:17:28;;;;;;;;;;;;;;;;;;5070774;28;19921;-85
2024/02/15 19:19:55;;;;;;;;;;;;;;;;;;5069588;28;19928;-85
2024/02/15 19:22:22;;;;;;;;;;;;;;;;;;5069301;28;19924;-84
2024/02/15 19:24:51;;;;;;;;;;;;;;;;;;5069681;28;19959;-86
2024/02/15 19:27:17;;;;;;;;;;;;;;;;;;5071601;28;20400;-81
2024/02/15 19:29:44;;;;;;;;;;;;;;;;;;5076176;28;19959;-84
2024/02/15 19:32:12;;;;;;;;;;;;;;;;;;5077924;28;20342;-83
2024/02/15 19:34:39;;;;;;;;;;;;;;;;;;5078191;28;19925;-86
2024/02/15 19:37:07;;;;;;;;;;;;;;;;;;5074297;28;19987;-84
2024/02/15 19:39:34;;;;;;;;;;;;;;;;;;5073635;28;19938;-87
2024/02/15 19:42:01;;;;;;;;;;;;;;;;;;5073045;28;19960;-86
2024/02/15 19:44:29;;;;;;;;;;;;;;;;;;5068808;28;20003;-86
2024/02/15 19:46:56;;;;;;;;;;;;;;;;;;5068697;28;19921;-87
2024/02/15 19:49:23;;;;;;;;;;;;;;;;;;5065246;28;19988;-86
2024/02/15 19:51:50;;;;;;;;;;;;;;;;;;5066211;28;19924;-87
2024/02/15 19:54:17;;;;;;;;;;;;;;;;;;5066175;28;19921;-87
2024/02/15 19:56:44;;;;;;;;;;;;;;;;;;5071235;28;19915;-86
2024/02/15 19:59:12;;;;;;;;;;;12.20;99.90;;;;;;5069735;28;19960;-86
2024/02/15 20:01:43;;;;;;;;;;;12.10;99.90;;;;;;5067019;28;19982;-86